sensor_id;sensor_type;location;lat;lon;timestamp;temperature;humidity
78448;SHT31;67742;51.972;5.682;2023-06-22T00:00:13;22.4;59.0
78448;SHT31;67742;51.972;5.682;2023-06-22T00:02:42;22.4;58.8
78448;SHT31;67742;51.972;5.682;2023-06-22T00:05:10;22.4;58.8
78448;SHT31;67742;51.972;5.682;2023-06-22T00:07:39;22.4;58.8
78448;SHT31;67742;51.972;5.682;2023-06-22T00:10:08;22.4;58.4
78448;SHT31;67742;51.972;5.682;2023-06-22T00:12:38;22.3;58.2
78448;SHT31;67742;51.972;5.682;2023-06-22T00:15:08;22.3;58.6
78448;SHT31;67742;51.972;5.682;2023-06-22T00:17:38;22.3;58.2
78448;SHT31;67742;51.972;5.682;2023-06-22T00:20:08;22.3;58.3
78448;SHT31;67742;51.972;5.682;2023-06-22T00:22:37;22.3;58.2
78448;SHT31;67742;51.972;5.682;2023-06-22T00:25:07;22.3;58.1
78448;SHT31;67742;51.972;5.682;2023-06-22T00:27:37;22.3;58.0
78448;SHT31;67742;51.972;5.682;2023-06-22T00:30:06;22.2;57.9
78448;SHT31;67742;51.972;5.682;2023-06-22T00:32:35;22.2;57.9
78448;SHT31;67742;51.972;5.682;2023-06-22T00:35:04;22.2;58.2
78448;SHT31;67742;51.972;5.682;2023-06-22T00:37:33;22.2;58.0
78448;SHT31;67742;51.972;5.682;2023-06-22T00:40:03;22.1;58.1
78448;SHT31;67742;51.972;5.682;2023-06-22T00:42:31;22.1;58.0
78448;SHT31;67742;51.972;5.682;2023-06-22T00:45:00;22.1;58.2
78448;SHT31;67742;51.972;5.682;2023-06-22T00:47:29;22.0;58.1
78448;SHT31;67742;51.972;5.682;2023-06-22T00:49:58;22.0;58.2
78448;SHT31;67742;51.972;5.682;2023-06-22T00:52:27;22.0;58.4
78448;SHT31;67742;51.972;5.682;2023-06-22T00:54:58;22.0;58.4
78448;SHT31;67742;51.972;5.682;2023-06-22T00:57:29;22.0;58.7
78448;SHT31;67742;51.972;5.682;2023-06-22T00:59:58;22.0;58.7
78448;SHT31;67742;51.972;5.682;2023-06-22T01:02:27;22.0;58.5
78448;SHT31;67742;51.972;5.682;2023-06-22T01:04:56;21.9;58.5
78448;SHT31;67742;51.972;5.682;2023-06-22T01:07:34;21.9;58.8
78448;SHT31;67742;51.972;5.682;2023-06-22T01:10:08;21.9;59.0
78448;SHT31;67742;51.972;5.682;2023-06-22T01:12:44;21.9;59.0
78448;SHT31;67742;51.972;5.682;2023-06-22T01:15:23;21.9;59.2
78448;SHT31;67742;51.972;5.682;2023-06-22T01:17:56;21.9;58.8
78448;SHT31;67742;51.972;5.682;2023-06-22T01:20:28;21.8;59.2
78448;SHT31;67742;51.972;5.682;2023-06-22T01:23:10;21.8;59.0
78448;SHT31;67742;51.972;5.682;2023-06-22T01:25:45;21.8;59.2
78448;SHT31;67742;51.972;5.682;2023-06-22T01:28:24;21.8;59.0
78448;SHT31;67742;51.972;5.682;2023-06-22T01:30:55;21.7;58.9
78448;SHT31;67742;51.972;5.682;2023-06-22T01:33:34;21.7;59.4
78448;SHT31;67742;51.972;5.682;2023-06-22T01:36:05;21.7;59.2
78448;SHT31;67742;51.972;5.682;2023-06-22T01:38:37;21.7;59.3
78448;SHT31;67742;51.972;5.682;2023-06-22T01:41:06;21.6;59.5
78448;SHT31;67742;51.972;5.682;2023-06-22T01:43:36;21.6;59.6
78448;SHT31;67742;51.972;5.682;2023-06-22T01:46:05;21.6;59.9
78448;SHT31;67742;51.972;5.682;2023-06-22T01:48:36;21.5;60.0
78448;SHT31;67742;51.972;5.682;2023-06-22T01:51:06;21.5;59.8
78448;SHT31;67742;51.972;5.682;2023-06-22T01:53:35;21.5;59.7
78448;SHT31;67742;51.972;5.682;2023-06-22T01:56:04;21.5;59.6
78448;SHT31;67742;51.972;5.682;2023-06-22T01:58:33;21.5;59.6
78448;SHT31;67742;51.972;5.682;2023-06-22T02:01:12;21.4;59.5
78448;SHT31;67742;51.972;5.682;2023-06-22T02:03:47;21.4;59.9
78448;SHT31;67742;51.972;5.682;2023-06-22T02:06:23;21.4;59.5
78448;SHT31;67742;51.972;5.682;2023-06-22T02:08:57;21.4;59.9
78448;SHT31;67742;51.972;5.682;2023-06-22T02:11:28;21.3;59.9
78448;SHT31;67742;51.972;5.682;2023-06-22T02:13:59;21.3;60.0
78448;SHT31;67742;51.972;5.682;2023-06-22T02:16:28;21.3;60.0
78448;SHT31;67742;51.972;5.682;2023-06-22T02:19:01;21.3;60.1
78448;SHT31;67742;51.972;5.682;2023-06-22T02:21:32;21.2;60.0
78448;SHT31;67742;51.972;5.682;2023-06-22T02:24:01;21.2;59.7
78448;SHT31;67742;51.972;5.682;2023-06-22T02:26:33;21.2;60.0
78448;SHT31;67742;51.972;5.682;2023-06-22T02:29:02;21.2;60.3
78448;SHT31;67742;51.972;5.682;2023-06-22T02:31:31;21.1;60.3
78448;SHT31;67742;51.972;5.682;2023-06-22T02:33:59;21.1;60.2
78448;SHT31;67742;51.972;5.682;2023-06-22T02:36:30;21.1;60.4
78448;SHT31;67742;51.972;5.682;2023-06-22T02:39:00;21.1;60.6
78448;SHT31;67742;51.972;5.682;2023-06-22T02:41:32;21.1;60.8
78448;SHT31;67742;51.972;5.682;2023-06-22T02:44:00;21.0;61.0
78448;SHT31;67742;51.972;5.682;2023-06-22T02:46:29;21.0;61.0
78448;SHT31;67742;51.972;5.682;2023-06-22T02:48:58;21.0;60.6
78448;SHT31;67742;51.972;5.682;2023-06-22T02:51:26;21.0;61.0
78448;SHT31;67742;51.972;5.682;2023-06-22T02:53:55;20.9;61.1
78448;SHT31;67742;51.972;5.682;2023-06-22T02:56:23;20.9;60.9
78448;SHT31;67742;51.972;5.682;2023-06-22T02:58:52;20.9;61.2
78448;SHT31;67742;51.972;5.682;2023-06-22T03:01:20;20.9;61.2
78448;SHT31;67742;51.972;5.682;2023-06-22T03:03:50;20.9;61.3
78448;SHT31;67742;51.972;5.682;2023-06-22T03:06:21;20.8;61.2
78448;SHT31;67742;51.972;5.682;2023-06-22T03:08:58;20.8;61.4
78448;SHT31;67742;51.972;5.682;2023-06-22T03:11:28;20.8;61.1
78448;SHT31;67742;51.972;5.682;2023-06-22T03:13:56;20.8;61.1
78448;SHT31;67742;51.972;5.682;2023-06-22T03:16:25;20.8;61.6
78448;SHT31;67742;51.972;5.682;2023-06-22T03:18:53;20.7;61.8
78448;SHT31;67742;51.972;5.682;2023-06-22T03:21:25;20.7;61.6
78448;SHT31;67742;51.972;5.682;2023-06-22T03:23:54;20.7;61.8
78448;SHT31;67742;51.972;5.682;2023-06-22T03:26:23;20.7;61.9
78448;SHT31;67742;51.972;5.682;2023-06-22T03:28:53;20.7;62.2
78448;SHT31;67742;51.972;5.682;2023-06-22T03:31:23;20.7;62.0
78448;SHT31;67742;51.972;5.682;2023-06-22T03:33:52;20.6;62.1
78448;SHT31;67742;51.972;5.682;2023-06-22T03:36:23;20.6;62.1
78448;SHT31;67742;51.972;5.682;2023-06-22T03:38:52;20.6;62.1
78448;SHT31;67742;51.972;5.682;2023-06-22T03:41:20;20.6;62.6
78448;SHT31;67742;51.972;5.682;2023-06-22T03:43:48;20.6;62.7
78448;SHT31;67742;51.972;5.682;2023-06-22T03:46:19;20.6;62.8
78448;SHT31;67742;51.972;5.682;2023-06-22T03:48:48;20.5;62.7
78448;SHT31;67742;51.972;5.682;2023-06-22T03:51:16;20.5;62.9
78448;SHT31;67742;51.972;5.682;2023-06-22T03:53:45;20.5;63.1
78448;SHT31;67742;51.972;5.682;2023-06-22T03:56:14;20.5;63.1
78448;SHT31;67742;51.972;5.682;2023-06-22T03:58:46;20.5;63.1
78448;SHT31;67742;51.972;5.682;2023-06-22T04:01:15;20.5;63.0
78448;SHT31;67742;51.972;5.682;2023-06-22T04:03:45;20.5;62.8
78448;SHT31;67742;51.972;5.682;2023-06-22T04:06:16;20.5;62.9
78448;SHT31;67742;51.972;5.682;2023-06-22T04:08:45;20.5;63.3
78448;SHT31;67742;51.972;5.682;2023-06-22T04:11:17;20.5;63.3
78448;SHT31;67742;51.972;5.682;2023-06-22T04:13:46;20.5;63.4
78448;SHT31;67742;51.972;5.682;2023-06-22T04:16:15;20.5;63.5
78448;SHT31;67742;51.972;5.682;2023-06-22T04:18:43;20.5;63.6
78448;SHT31;67742;51.972;5.682;2023-06-22T04:21:13;20.4;63.5
78448;SHT31;67742;51.972;5.682;2023-06-22T04:23:42;20.4;63.9
78448;SHT31;67742;51.972;5.682;2023-06-22T04:26:12;20.4;64.0
78448;SHT31;67742;51.972;5.682;2023-06-22T04:28:42;20.4;63.9
78448;SHT31;67742;51.972;5.682;2023-06-22T04:31:17;20.4;64.4
78448;SHT31;67742;51.972;5.682;2023-06-22T04:33:47;20.4;64.5
78448;SHT31;67742;51.972;5.682;2023-06-22T04:36:18;20.4;64.4
78448;SHT31;67742;51.972;5.682;2023-06-22T04:38:47;20.4;64.7
78448;SHT31;67742;51.972;5.682;2023-06-22T04:41:19;20.4;64.9
78448;SHT31;67742;51.972;5.682;2023-06-22T04:43:50;20.4;65.2
78448;SHT31;67742;51.972;5.682;2023-06-22T04:46:23;20.4;65.4
78448;SHT31;67742;51.972;5.682;2023-06-22T04:48:52;20.4;65.3
78448;SHT31;67742;51.972;5.682;2023-06-22T04:51:20;20.5;65.5
78448;SHT31;67742;51.972;5.682;2023-06-22T04:53:49;20.5;65.7
78448;SHT31;67742;51.972;5.682;2023-06-22T04:56:18;20.5;65.9
78448;SHT31;67742;51.972;5.682;2023-06-22T04:58:48;20.5;65.7
78448;SHT31;67742;51.972;5.682;2023-06-22T05:01:18;20.5;65.8
78448;SHT31;67742;51.972;5.682;2023-06-22T05:03:49;20.5;65.8
78448;SHT31;67742;51.972;5.682;2023-06-22T05:06:19;20.5;66.2
78448;SHT31;67742;51.972;5.682;2023-06-22T05:08:48;20.6;66.2
78448;SHT31;67742;51.972;5.682;2023-06-22T05:11:16;20.6;66.2
78448;SHT31;67742;51.972;5.682;2023-06-22T05:13:44;20.6;66.5
78448;SHT31;67742;51.972;5.682;2023-06-22T05:16:13;20.6;66.7
78448;SHT31;67742;51.972;5.682;2023-06-22T05:18:44;20.6;66.6
78448;SHT31;67742;51.972;5.682;2023-06-22T05:21:13;20.7;66.9
78448;SHT31;67742;51.972;5.682;2023-06-22T05:23:41;20.7;66.8
78448;SHT31;67742;51.972;5.682;2023-06-22T05:26:10;20.7;66.7
78448;SHT31;67742;51.972;5.682;2023-06-22T05:28:38;20.7;67.0
78448;SHT31;67742;51.972;5.682;2023-06-22T05:31:07;20.8;66.6
78448;SHT31;67742;51.972;5.682;2023-06-22T05:33:35;20.8;67.0
78448;SHT31;67742;51.972;5.682;2023-06-22T05:38:57;20.9;67.1
78448;SHT31;67742;51.972;5.682;2023-06-22T05:41:26;20.9;67.0
78448;SHT31;67742;51.972;5.682;2023-06-22T05:43:54;21.0;67.2
78448;SHT31;67742;51.972;5.682;2023-06-22T05:46:23;21.0;67.1
78448;SHT31;67742;51.972;5.682;2023-06-22T05:48:52;21.0;67.3
78448;SHT31;67742;51.972;5.682;2023-06-22T05:51:20;21.1;67.9
78448;SHT31;67742;51.972;5.682;2023-06-22T05:53:48;21.1;66.8
78448;SHT31;67742;51.972;5.682;2023-06-22T05:56:18;21.2;66.9
78448;SHT31;67742;51.972;5.682;2023-06-22T05:58:47;21.2;66.7
78448;SHT31;67742;51.972;5.682;2023-06-22T06:01:16;21.3;66.7
78448;SHT31;67742;51.972;5.682;2023-06-22T06:03:45;21.3;66.6
78448;SHT31;67742;51.972;5.682;2023-06-22T06:06:17;21.4;66.7
78448;SHT31;67742;51.972;5.682;2023-06-22T06:08:49;21.4;66.3
78448;SHT31;67742;51.972;5.682;2023-06-22T06:11:17;21.4;66.0
78448;SHT31;67742;51.972;5.682;2023-06-22T06:13:46;21.5;66.1
78448;SHT31;67742;51.972;5.682;2023-06-22T06:16:14;21.5;66.0
78448;SHT31;67742;51.972;5.682;2023-06-22T06:18:43;21.6;66.2
78448;SHT31;67742;51.972;5.682;2023-06-22T06:21:11;21.6;66.2
78448;SHT31;67742;51.972;5.682;2023-06-22T06:23:40;21.7;66.2
78448;SHT31;67742;51.972;5.682;2023-06-22T06:26:09;21.7;65.9
78448;SHT31;67742;51.972;5.682;2023-06-22T06:28:37;21.8;66.0
78448;SHT31;67742;51.972;5.682;2023-06-22T06:31:07;21.8;66.3
78448;SHT31;67742;51.972;5.682;2023-06-22T06:33:36;21.9;66.0
78448;SHT31;67742;51.972;5.682;2023-06-22T06:36:05;21.9;66.5
78448;SHT31;67742;51.972;5.682;2023-06-22T06:38:34;21.9;66.0
78448;SHT31;67742;51.972;5.682;2023-06-22T06:41:03;22.0;66.3
78448;SHT31;67742;51.972;5.682;2023-06-22T06:43:32;22.1;66.1
78448;SHT31;67742;51.972;5.682;2023-06-22T06:46:00;22.1;66.3
78448;SHT31;67742;51.972;5.682;2023-06-22T06:48:29;22.2;65.4
78448;SHT31;67742;51.972;5.682;2023-06-22T06:50:58;22.2;65.4
78448;SHT31;67742;51.972;5.682;2023-06-22T06:53:27;22.3;66.0
78448;SHT31;67742;51.972;5.682;2023-06-22T06:55:56;22.4;66.5
78448;SHT31;67742;51.972;5.682;2023-06-22T06:58:24;22.5;65.8
78448;SHT31;67742;51.972;5.682;2023-06-22T07:00:53;22.6;65.9
78448;SHT31;67742;51.972;5.682;2023-06-22T07:03:21;22.6;65.2
78448;SHT31;67742;51.972;5.682;2023-06-22T07:05:50;22.7;64.7
78448;SHT31;67742;51.972;5.682;2023-06-22T07:08:19;22.8;64.1
78448;SHT31;67742;51.972;5.682;2023-06-22T07:10:48;22.9;63.5
78448;SHT31;67742;51.972;5.682;2023-06-22T07:13:16;23.0;63.3
78448;SHT31;67742;51.972;5.682;2023-06-22T07:15:45;23.0;62.3
78448;SHT31;67742;51.972;5.682;2023-06-22T07:18:13;23.1;62.6
78448;SHT31;67742;51.972;5.682;2023-06-22T07:20:42;23.2;63.1
78448;SHT31;67742;51.972;5.682;2023-06-22T07:23:11;23.3;62.1
78448;SHT31;67742;51.972;5.682;2023-06-22T07:25:39;23.3;61.3
78448;SHT31;67742;51.972;5.682;2023-06-22T07:28:08;23.4;61.7
78448;SHT31;67742;51.972;5.682;2023-06-22T07:30:37;23.4;61.6
78448;SHT31;67742;51.972;5.682;2023-06-22T07:33:06;23.5;61.2
78448;SHT31;67742;51.972;5.682;2023-06-22T07:35:35;23.6;61.6
78448;SHT31;67742;51.972;5.682;2023-06-22T07:38:04;23.6;60.8
78448;SHT31;67742;51.972;5.682;2023-06-22T07:40:33;23.7;60.0
78448;SHT31;67742;51.972;5.682;2023-06-22T07:43:02;23.8;59.5
78448;SHT31;67742;51.972;5.682;2023-06-22T07:45:31;23.8;60.1
78448;SHT31;67742;51.972;5.682;2023-06-22T07:48:01;23.9;59.4
78448;SHT31;67742;51.972;5.682;2023-06-22T07:50:30;24.0;58.2
78448;SHT31;67742;51.972;5.682;2023-06-22T07:52:58;24.1;59.1
78448;SHT31;67742;51.972;5.682;2023-06-22T07:55:26;24.1;59.3
78448;SHT31;67742;51.972;5.682;2023-06-22T07:57:56;24.2;57.9
78448;SHT31;67742;51.972;5.682;2023-06-22T08:00:25;24.3;57.1
78448;SHT31;67742;51.972;5.682;2023-06-22T08:02:53;24.4;57.2
78448;SHT31;67742;51.972;5.682;2023-06-22T08:05:22;24.4;57.0
78448;SHT31;67742;51.972;5.682;2023-06-22T08:07:51;24.5;57.5
78448;SHT31;67742;51.972;5.682;2023-06-22T08:10:21;24.6;57.3
78448;SHT31;67742;51.972;5.682;2023-06-22T08:12:50;24.6;57.3
78448;SHT31;67742;51.972;5.682;2023-06-22T08:15:20;24.7;56.9
78448;SHT31;67742;51.972;5.682;2023-06-22T08:17:49;24.8;56.6
78448;SHT31;67742;51.972;5.682;2023-06-22T08:20:18;24.9;56.8
78448;SHT31;67742;51.972;5.682;2023-06-22T08:22:47;25.0;56.9
78448;SHT31;67742;51.972;5.682;2023-06-22T08:25:15;25.0;56.3
78448;SHT31;67742;51.972;5.682;2023-06-22T08:27:47;25.1;55.6
78448;SHT31;67742;51.972;5.682;2023-06-22T08:30:18;25.2;55.3
78448;SHT31;67742;51.972;5.682;2023-06-22T08:32:47;25.2;55.5
78448;SHT31;67742;51.972;5.682;2023-06-22T08:35:16;25.3;55.6
78448;SHT31;67742;51.972;5.682;2023-06-22T08:37:44;25.4;55.1
78448;SHT31;67742;51.972;5.682;2023-06-22T08:40:19;25.4;54.4
78448;SHT31;67742;51.972;5.682;2023-06-22T08:42:49;25.5;54.6
78448;SHT31;67742;51.972;5.682;2023-06-22T08:45:18;25.5;53.9
78448;SHT31;67742;51.972;5.682;2023-06-22T08:47:47;25.6;53.7
78448;SHT31;67742;51.972;5.682;2023-06-22T08:50:18;25.7;53.9
78448;SHT31;67742;51.972;5.682;2023-06-22T08:52:46;25.7;54.1
78448;SHT31;67742;51.972;5.682;2023-06-22T08:55:15;25.8;54.5
78448;SHT31;67742;51.972;5.682;2023-06-22T08:57:44;25.8;54.0
78448;SHT31;67742;51.972;5.682;2023-06-22T09:00:14;25.9;53.6
78448;SHT31;67742;51.972;5.682;2023-06-22T09:02:47;26.0;54.2
78448;SHT31;67742;51.972;5.682;2023-06-22T09:05:16;26.0;51.5
78448;SHT31;67742;51.972;5.682;2023-06-22T09:07:45;26.1;50.8
78448;SHT31;67742;51.972;5.682;2023-06-22T09:10:14;26.1;50.5
78448;SHT31;67742;51.972;5.682;2023-06-22T09:12:44;26.2;50.7
78448;SHT31;67742;51.972;5.682;2023-06-22T09:15:12;26.3;50.0
78448;SHT31;67742;51.972;5.682;2023-06-22T09:17:41;26.3;49.5
78448;SHT31;67742;51.972;5.682;2023-06-22T09:20:11;26.4;50.0
78448;SHT31;67742;51.972;5.682;2023-06-22T09:22:41;26.5;48.5
78448;SHT31;67742;51.972;5.682;2023-06-22T09:25:10;26.5;49.2
78448;SHT31;67742;51.972;5.682;2023-06-22T09:27:38;26.5;49.0
78448;SHT31;67742;51.972;5.682;2023-06-22T09:30:09;26.6;48.8
78448;SHT31;67742;51.972;5.682;2023-06-22T09:32:38;26.6;48.3
78448;SHT31;67742;51.972;5.682;2023-06-22T09:35:10;26.7;47.9
78448;SHT31;67742;51.972;5.682;2023-06-22T09:37:39;26.7;46.3
78448;SHT31;67742;51.972;5.682;2023-06-22T09:40:12;26.7;47.2
78448;SHT31;67742;51.972;5.682;2023-06-22T09:42:45;26.8;48.2
78448;SHT31;67742;51.972;5.682;2023-06-22T09:45:13;26.8;47.8
78448;SHT31;67742;51.972;5.682;2023-06-22T09:47:42;26.8;46.7
78448;SHT31;67742;51.972;5.682;2023-06-22T09:50:11;26.8;46.1
78448;SHT31;67742;51.972;5.682;2023-06-22T09:52:39;26.9;45.8
78448;SHT31;67742;51.972;5.682;2023-06-22T09:55:11;26.9;47.4
78448;SHT31;67742;51.972;5.682;2023-06-22T09:57:42;26.9;46.9
78448;SHT31;67742;51.972;5.682;2023-06-22T10:00:11;26.9;47.0
78448;SHT31;67742;51.972;5.682;2023-06-22T10:02:42;26.9;46.9
78448;SHT31;67742;51.972;5.682;2023-06-22T10:05:11;27.0;47.8
78448;SHT31;67742;51.972;5.682;2023-06-22T10:07:40;27.0;48.1
78448;SHT31;67742;51.972;5.682;2023-06-22T10:10:11;27.0;48.5
78448;SHT31;67742;51.972;5.682;2023-06-22T10:12:44;27.0;48.6
78448;SHT31;67742;51.972;5.682;2023-06-22T10:15:14;27.0;48.4
78448;SHT31;67742;51.972;5.682;2023-06-22T10:17:43;27.0;48.5
78448;SHT31;67742;51.972;5.682;2023-06-22T10:20:15;27.0;48.8
78448;SHT31;67742;51.972;5.682;2023-06-22T10:22:45;27.0;49.4
78448;SHT31;67742;51.972;5.682;2023-06-22T10:25:14;27.0;49.0
78448;SHT31;67742;51.972;5.682;2023-06-22T10:27:44;27.0;48.2
78448;SHT31;67742;51.972;5.682;2023-06-22T10:30:14;27.0;49.8
78448;SHT31;67742;51.972;5.682;2023-06-22T10:32:43;27.0;49.1
78448;SHT31;67742;51.972;5.682;2023-06-22T10:35:13;27.0;49.8
78448;SHT31;67742;51.972;5.682;2023-06-22T10:37:42;27.0;49.5
78448;SHT31;67742;51.972;5.682;2023-06-22T10:40:13;27.0;49.4
78448;SHT31;67742;51.972;5.682;2023-06-22T10:42:43;27.0;50.1
78448;SHT31;67742;51.972;5.682;2023-06-22T10:45:12;27.0;50.4
78448;SHT31;67742;51.972;5.682;2023-06-22T10:47:40;27.0;49.1
78448;SHT31;67742;51.972;5.682;2023-06-22T10:50:11;27.0;49.8
78448;SHT31;67742;51.972;5.682;2023-06-22T10:52:40;27.0;50.3
78448;SHT31;67742;51.972;5.682;2023-06-22T10:55:10;27.0;51.4
78448;SHT31;67742;51.972;5.682;2023-06-22T10:57:39;27.0;51.6
78448;SHT31;67742;51.972;5.682;2023-06-22T11:00:12;27.0;51.2
78448;SHT31;67742;51.972;5.682;2023-06-22T11:02:42;27.0;50.9
78448;SHT31;67742;51.972;5.682;2023-06-22T11:05:11;27.0;51.9
78448;SHT31;67742;51.972;5.682;2023-06-22T11:07:41;27.0;51.3
78448;SHT31;67742;51.972;5.682;2023-06-22T11:10:10;27.0;51.4
78448;SHT31;67742;51.972;5.682;2023-06-22T11:12:39;27.0;51.9
78448;SHT31;67742;51.972;5.682;2023-06-22T11:15:10;27.0;51.6
78448;SHT31;67742;51.972;5.682;2023-06-22T11:17:39;27.0;51.6
78448;SHT31;67742;51.972;5.682;2023-06-22T11:20:11;27.0;51.2
78448;SHT31;67742;51.972;5.682;2023-06-22T11:22:40;27.0;51.2
78448;SHT31;67742;51.972;5.682;2023-06-22T11:25:10;27.0;50.9
78448;SHT31;67742;51.972;5.682;2023-06-22T11:27:39;27.0;50.5
78448;SHT31;67742;51.972;5.682;2023-06-22T11:30:09;27.0;50.8
78448;SHT31;67742;51.972;5.682;2023-06-22T11:32:38;27.0;51.7
78448;SHT31;67742;51.972;5.682;2023-06-22T11:35:08;27.0;52.2
78448;SHT31;67742;51.972;5.682;2023-06-22T11:37:36;27.0;51.8
78448;SHT31;67742;51.972;5.682;2023-06-22T11:40:06;27.1;51.2
78448;SHT31;67742;51.972;5.682;2023-06-22T11:42:35;27.0;51.5
78448;SHT31;67742;51.972;5.682;2023-06-22T11:45:07;27.0;51.8
78448;SHT31;67742;51.972;5.682;2023-06-22T11:47:38;27.0;51.7
78448;SHT31;67742;51.972;5.682;2023-06-22T11:50:08;27.1;52.3
78448;SHT31;67742;51.972;5.682;2023-06-22T11:52:38;27.1;52.0
78448;SHT31;67742;51.972;5.682;2023-06-22T11:55:08;27.1;53.1
78448;SHT31;67742;51.972;5.682;2023-06-22T11:57:38;27.1;52.7
78448;SHT31;67742;51.972;5.682;2023-06-22T12:00:08;27.1;52.6
78448;SHT31;67742;51.972;5.682;2023-06-22T12:02:42;27.0;53.3
78448;SHT31;67742;51.972;5.682;2023-06-22T12:05:11;27.0;53.7
78448;SHT31;67742;51.972;5.682;2023-06-22T12:07:40;27.0;53.1
78448;SHT31;67742;51.972;5.682;2023-06-22T12:10:09;27.0;53.4
78448;SHT31;67742;51.972;5.682;2023-06-22T12:12:39;27.0;53.7
78448;SHT31;67742;51.972;5.682;2023-06-22T12:15:09;27.0;54.9
78448;SHT31;67742;51.972;5.682;2023-06-22T12:17:38;27.0;54.6
78448;SHT31;67742;51.972;5.682;2023-06-22T12:20:08;27.0;54.7
78448;SHT31;67742;51.972;5.682;2023-06-22T12:22:37;27.0;55.2
78448;SHT31;67742;51.972;5.682;2023-06-22T12:25:08;27.0;55.4
78448;SHT31;67742;51.972;5.682;2023-06-22T12:27:37;26.9;55.5
78448;SHT31;67742;51.972;5.682;2023-06-22T12:30:09;26.9;55.8
78448;SHT31;67742;51.972;5.682;2023-06-22T12:32:37;26.9;55.6
78448;SHT31;67742;51.972;5.682;2023-06-22T12:35:07;26.9;55.5
78448;SHT31;67742;51.972;5.682;2023-06-22T12:37:40;26.8;55.8
78448;SHT31;67742;51.972;5.682;2023-06-22T12:40:10;26.8;56.1
78448;SHT31;67742;51.972;5.682;2023-06-22T12:42:40;26.8;56.5
78448;SHT31;67742;51.972;5.682;2023-06-22T12:45:12;26.8;56.7
78448;SHT31;67742;51.972;5.682;2023-06-22T12:47:40;26.7;56.9
78448;SHT31;67742;51.972;5.682;2023-06-22T12:50:12;26.7;56.9
78448;SHT31;67742;51.972;5.682;2023-06-22T12:52:40;26.7;56.9
78448;SHT31;67742;51.972;5.682;2023-06-22T12:55:10;26.6;56.9
78448;SHT31;67742;51.972;5.682;2023-06-22T12:57:38;26.6;56.6
78448;SHT31;67742;51.972;5.682;2023-06-22T13:00:08;26.6;57.0
78448;SHT31;67742;51.972;5.682;2023-06-22T13:02:38;26.5;57.0
78448;SHT31;67742;51.972;5.682;2023-06-22T13:05:07;26.5;57.0
78448;SHT31;67742;51.972;5.682;2023-06-22T13:07:36;26.4;57.6
78448;SHT31;67742;51.972;5.682;2023-06-22T13:10:06;26.4;57.8
78448;SHT31;67742;51.972;5.682;2023-06-22T13:12:35;26.3;58.3
78448;SHT31;67742;51.972;5.682;2023-06-22T13:15:04;26.3;58.7
78448;SHT31;67742;51.972;5.682;2023-06-22T13:17:32;26.3;58.8
78448;SHT31;67742;51.972;5.682;2023-06-22T13:20:01;26.2;59.4
78448;SHT31;67742;51.972;5.682;2023-06-22T13:22:33;26.2;59.6
78448;SHT31;67742;51.972;5.682;2023-06-22T13:25:10;26.2;59.4
78448;SHT31;67742;51.972;5.682;2023-06-22T13:27:40;26.2;59.2
78448;SHT31;67742;51.972;5.682;2023-06-22T13:30:10;26.1;59.3
78448;SHT31;67742;51.972;5.682;2023-06-22T13:32:38;26.1;59.0
78448;SHT31;67742;51.972;5.682;2023-06-22T13:35:08;26.0;58.7
78448;SHT31;67742;51.972;5.682;2023-06-22T13:37:39;26.0;59.4
78448;SHT31;67742;51.972;5.682;2023-06-22T13:40:09;26.0;58.9
78448;SHT31;67742;51.972;5.682;2023-06-22T13:42:37;25.9;59.3
78448;SHT31;67742;51.972;5.682;2023-06-22T13:45:07;25.9;60.0
78448;SHT31;67742;51.972;5.682;2023-06-22T13:47:36;25.9;59.7
78448;SHT31;67742;51.972;5.682;2023-06-22T13:50:06;25.8;59.9
78448;SHT31;67742;51.972;5.682;2023-06-22T13:52:35;25.8;59.9
78448;SHT31;67742;51.972;5.682;2023-06-22T13:55:05;25.8;60.3
78448;SHT31;67742;51.972;5.682;2023-06-22T13:57:36;25.7;60.7
78448;SHT31;67742;51.972;5.682;2023-06-22T14:00:06;25.7;60.8
78448;SHT31;67742;51.972;5.682;2023-06-22T14:02:35;25.7;61.3
78448;SHT31;67742;51.972;5.682;2023-06-22T14:05:04;25.6;61.8
78448;SHT31;67742;51.972;5.682;2023-06-22T14:07:34;25.6;60.6
78448;SHT31;67742;51.972;5.682;2023-06-22T14:10:04;25.5;61.2
78448;SHT31;67742;51.972;5.682;2023-06-22T14:12:33;25.5;61.0
78448;SHT31;67742;51.972;5.682;2023-06-22T14:15:01;25.5;61.5
78448;SHT31;67742;51.972;5.682;2023-06-22T14:17:30;25.4;62.3
78448;SHT31;67742;51.972;5.682;2023-06-22T14:19:59;25.4;61.9
78448;SHT31;67742;51.972;5.682;2023-06-22T14:22:27;25.4;61.6
78448;SHT31;67742;51.972;5.682;2023-06-22T14:24:58;25.3;62.8
78448;SHT31;67742;51.972;5.682;2023-06-22T14:27:28;25.3;62.2
78448;SHT31;67742;51.972;5.682;2023-06-22T14:29:57;25.2;62.1
78448;SHT31;67742;51.972;5.682;2023-06-22T14:32:27;25.2;62.2
78448;SHT31;67742;51.972;5.682;2023-06-22T14:34:56;25.1;62.1
78448;SHT31;67742;51.972;5.682;2023-06-22T14:37:24;25.1;62.0
78448;SHT31;67742;51.972;5.682;2023-06-22T14:39:53;25.1;61.8
78448;SHT31;67742;51.972;5.682;2023-06-22T14:42:23;25.0;62.3
78448;SHT31;67742;51.972;5.682;2023-06-22T14:44:53;25.0;62.2
78448;SHT31;67742;51.972;5.682;2023-06-22T14:47:21;25.0;61.7
78448;SHT31;67742;51.972;5.682;2023-06-22T14:49:52;24.9;62.1
78448;SHT31;67742;51.972;5.682;2023-06-22T14:52:21;24.9;62.2
78448;SHT31;67742;51.972;5.682;2023-06-22T14:54:50;24.9;62.2
78448;SHT31;67742;51.972;5.682;2023-06-22T14:57:19;24.8;62.3
78448;SHT31;67742;51.972;5.682;2023-06-22T14:59:49;24.8;62.8
78448;SHT31;67742;51.972;5.682;2023-06-22T15:02:19;24.7;62.8
78448;SHT31;67742;51.972;5.682;2023-06-22T15:04:48;24.7;62.2
78448;SHT31;67742;51.972;5.682;2023-06-22T15:07:19;24.6;62.5
78448;SHT31;67742;51.972;5.682;2023-06-22T15:09:48;24.6;63.0
78448;SHT31;67742;51.972;5.682;2023-06-22T15:12:17;24.6;63.2
78448;SHT31;67742;51.972;5.682;2023-06-22T15:14:45;24.5;63.5
78448;SHT31;67742;51.972;5.682;2023-06-22T15:17:14;24.5;63.2
78448;SHT31;67742;51.972;5.682;2023-06-22T15:19:42;24.5;63.3
78448;SHT31;67742;51.972;5.682;2023-06-22T15:22:11;24.4;63.3
78448;SHT31;67742;51.972;5.682;2023-06-22T15:24:39;24.4;63.9
78448;SHT31;67742;51.972;5.682;2023-06-22T15:27:08;24.3;63.7
78448;SHT31;67742;51.972;5.682;2023-06-22T15:29:37;24.3;64.1
78448;SHT31;67742;51.972;5.682;2023-06-22T15:32:06;24.3;64.1
78448;SHT31;67742;51.972;5.682;2023-06-22T15:34:35;24.3;64.0
78448;SHT31;67742;51.972;5.682;2023-06-22T15:37:04;24.2;63.7
78448;SHT31;67742;51.972;5.682;2023-06-22T15:39:33;24.2;64.0
78448;SHT31;67742;51.972;5.682;2023-06-22T15:42:02;24.2;64.3
78448;SHT31;67742;51.972;5.682;2023-06-22T15:44:30;24.2;64.3
78448;SHT31;67742;51.972;5.682;2023-06-22T15:46:59;24.2;64.7
78448;SHT31;67742;51.972;5.682;2023-06-22T15:49:29;24.1;64.7
78448;SHT31;67742;51.972;5.682;2023-06-22T15:51:58;24.1;64.4
78448;SHT31;67742;51.972;5.682;2023-06-22T15:54:26;24.0;65.4
78448;SHT31;67742;51.972;5.682;2023-06-22T15:56:55;24.0;65.6
78448;SHT31;67742;51.972;5.682;2023-06-22T15:59:23;23.9;65.8
78448;SHT31;67742;51.972;5.682;2023-06-22T16:01:52;23.9;65.7
78448;SHT31;67742;51.972;5.682;2023-06-22T16:04:21;23.9;65.8
78448;SHT31;67742;51.972;5.682;2023-06-22T16:06:52;23.8;66.2
78448;SHT31;67742;51.972;5.682;2023-06-22T16:09:20;23.8;66.4
78448;SHT31;67742;51.972;5.682;2023-06-22T16:11:49;23.8;66.5
78448;SHT31;67742;51.972;5.682;2023-06-22T16:14:17;23.8;67.3
78448;SHT31;67742;51.972;5.682;2023-06-22T16:16:46;23.8;67.5
78448;SHT31;67742;51.972;5.682;2023-06-22T16:19:15;23.8;67.7